Vn Rebel _ — ILBR — position and weather

sailwx.info

Track history (hours):
 
Tides and Currents Weather Stations Pressure Air Temp Water Temp Dewpoint Dewpoint Depression Visibility Wind Speed Wind Dir Waves Ship Positions

Vn Rebel _

Last reported at 2015-Mar-06 05:33 UTC. Time now 2015-Mar-06 12:41 UTC.
Position N 43°06' E 005°55'.

Length 45 m; draft 2.4 m.

MMSI: 247010300.

Date/timePositionNaut miles runAvg speedWind from/ knotsBaromVisibWave heightAir tempDewpointWater temp
2015-Mar-06 05:33N 43°06' E 005°55'27 6.7
2015-Mar-06 01:33N 43°07' E 006°32'7 7.1
2015-Mar-06 00:33N 43°10' E 006°41'7 7.0
2015-Mar-05 23:33N 43°17' E 006°44'8 7.6
2015-Mar-05 22:33N 43°24' E 006°45'1 0.5
2015-Mar-05 21:32N 43°25' E 006°45'0 0.0
2015-Mar-05 20:32N 43°25' E 006°45'0 0.0
2015-Mar-05 19:32N 43°25' E 006°45'0 0.0
2015-Mar-05 18:32N 43°25' E 006°45'0 0.0
2015-Mar-05 17:32N 43°25' E 006°45'0 0.0
2015-Mar-05 16:32N 43°25' E 006°45'6 6.7
2015-Mar-05 15:33N 43°18' E 006°47'8 7.6
2015-Mar-05 14:33N 43°11' E 006°43'9 8.6
2015-Mar-05 13:33N 43°07' E 006°33'25 8.5
2015-Mar-05 10:33N 43°04' E 005°58'3 0.1
2015-Mar-03 22:33N 43°07' E 005°55'10 8.4
2015-Mar-03 21:19N 42°58' E 006°01'8 9.3
2015-Mar-03 20:24N 42°49' E 006°04'16 7.9
2015-Mar-03 18:20N 42°34' E 006°11'3 3.9
2015-Mar-03 17:29N 42°31' E 006°11'12 5.9
2015-Mar-03 15:27N 42°30' E 005°54'7 7.8
2015-Mar-03 14:31N 42°32' E 005°45'25 6.1
2015-Mar-03 10:21N 42°57' E 005°49'5 5.8
2015-Mar-03 09:32N 43°01' E 005°53'5 5.0
2015-Mar-03 08:33N 43°04' E 005°58'2 1.9
2015-Mar-03 07:33N 43°06' E 005°57'2 2.1
2015-Mar-03 06:33N 43°07' E 005°55'1 0.0
2015-Mar-01 19:33N 43°07' E 005°55'6 6.0
2015-Mar-01 18:28N 43°03' E 006°01'19 8.1
2015-Mar-01 16:06N 43°06' E 006°28'4 6.8
2015-Mar-01 15:32N 43°06' E 006°33'8 8.2
2015-Mar-01 14:33N 43°03' E 006°43'17 8.4
2015-Mar-01 12:33N 42°59' E 007°06'3 2.6
2015-Mar-01 11:33N 43°01' E 007°09'2 1.9
2015-Mar-01 10:27N 43°03' E 007°10'5 5.8
2015-Mar-01 09:33N 43°00' E 007°03'1 1.5
2015-Mar-01 08:33N 42°59' E 007°05'4 4.1
2015-Mar-01 07:33N 42°59' E 007°10'4 4.3
2015-Mar-01 06:32N 42°59' E 007°16'0 0.1
2015-Mar-01 04:30N 42°59' E 007°16'4 2.1
2015-Mar-01 02:27N 42°60' E 007°10'5 5.1
2015-Mar-01 01:33N 43°01' E 007°04'5 5.0
2015-Mar-01 00:33N 43°02' E 006°57'5 5.4
2015-Feb-28 23:33N 43°03' E 006°50'5 4.8
2015-Feb-28 22:33N 43°04' E 006°44'5 4.6
2015-Feb-28 21:33N 43°05' E 006°38'5 5.0
2015-Feb-28 20:33N 43°07' E 006°31'2 0.7
2015-Feb-28 18:13N 43°06' E 006°29'6 8.8
2015-Feb-28 17:33N 43°03' E 006°36'9 8.6
2015-Feb-28 16:33N 42°59' E 006°47'9 8.8
2015-Feb-28 15:33N 42°54' E 006°57'4 4.4
2015-Feb-28 14:32N 42°50' E 006°57'5 5.4
2015-Feb-28 13:33N 42°54' E 007°00'6 6.4
2015-Feb-28 12:33N 42°59' E 007°07'8 7.7
2015-Feb-28 11:32N 43°04' E 007°15'25 5.8
2015-Feb-28 07:13N 43°26' E 007°30'12 2.6
2015-Feb-28 02:30N 43°18' E 007°18'8 8.4
2015-Feb-28 01:33N 43°16' E 007°07'8 8.0
2015-Feb-28 00:33N 43°13' E 006°57'8 8.4
2015-Feb-27 23:33N 43°10' E 006°46'9 9.2
2015-Feb-27 22:33N 43°07' E 006°34'23 9.1
2015-Feb-27 20:03N 43°02' E 006°04'5 9.8
2015-Feb-27 19:33N 43°05' E 005°58'  
Track history (hours):
 
Tides and Currents Weather Stations Pressure Air Temp Water Temp Dewpoint Dewpoint Depression Visibility Wind Speed Wind Dir Waves Ship Positions

Vn Rebel _

Last reported at 2015-Mar-06 05:33 UTC. Time now 2015-Mar-06 12:41 UTC.
Position N 43°06' E 005°55'.

Length 45 m; draft 2.4 m.

MMSI: 247010300.

Date/timePositionNaut miles runAvg speedWind from/ knotsBaromVisibWave heightAir tempDewpointWater temp
2015-Mar-06 05:33N 43°06' E 005°55'27 6.7
2015-Mar-06 01:33N 43°07' E 006°32'7 7.1
2015-Mar-06 00:33N 43°10' E 006°41'7 7.0
2015-Mar-05 23:33N 43°17' E 006°44'8 7.6
2015-Mar-05 22:33N 43°24' E 006°45'1 0.5
2015-Mar-05 21:32N 43°25' E 006°45'0 0.0
2015-Mar-05 20:32N 43°25' E 006°45'0 0.0
2015-Mar-05 19:32N 43°25' E 006°45'0 0.0
2015-Mar-05 18:32N 43°25' E 006°45'0 0.0
2015-Mar-05 17:32N 43°25' E 006°45'0 0.0
2015-Mar-05 16:32N 43°25' E 006°45'6 6.7
2015-Mar-05 15:33N 43°18' E 006°47'8 7.6
2015-Mar-05 14:33N 43°11' E 006°43'9 8.6
2015-Mar-05 13:33N 43°07' E 006°33'25 8.5
2015-Mar-05 10:33N 43°04' E 005°58'3 0.1
2015-Mar-03 22:33N 43°07' E 005°55'10 8.4
2015-Mar-03 21:19N 42°58' E 006°01'8 9.3
2015-Mar-03 20:24N 42°49' E 006°04'16 7.9
2015-Mar-03 18:20N 42°34' E 006°11'3 3.9
2015-Mar-03 17:29N 42°31' E 006°11'12 5.9
2015-Mar-03 15:27N 42°30' E 005°54'7 7.8
2015-Mar-03 14:31N 42°32' E 005°45'25 6.1
2015-Mar-03 10:21N 42°57' E 005°49'5 5.8
2015-Mar-03 09:32N 43°01' E 005°53'5 5.0
2015-Mar-03 08:33N 43°04' E 005°58'2 1.9
2015-Mar-03 07:33N 43°06' E 005°57'2 2.1
2015-Mar-03 06:33N 43°07' E 005°55'1 0.0
2015-Mar-01 19:33N 43°07' E 005°55'6 6.0
2015-Mar-01 18:28N 43°03' E 006°01'19 8.1
2015-Mar-01 16:06N 43°06' E 006°28'4 6.8
2015-Mar-01 15:32N 43°06' E 006°33'8 8.2
2015-Mar-01 14:33N 43°03' E 006°43'17 8.4
2015-Mar-01 12:33N 42°59' E 007°06'3 2.6
2015-Mar-01 11:33N 43°01' E 007°09'2 1.9
2015-Mar-01 10:27N 43°03' E 007°10'5 5.8
2015-Mar-01 09:33N 43°00' E 007°03'1 1.5
2015-Mar-01 08:33N 42°59' E 007°05'4 4.1
2015-Mar-01 07:33N 42°59' E 007°10'4 4.3
2015-Mar-01 06:32N 42°59' E 007°16'0 0.1
2015-Mar-01 04:30N 42°59' E 007°16'4 2.1
2015-Mar-01 02:27N 42°60' E 007°10'5 5.1
2015-Mar-01 01:33N 43°01' E 007°04'5 5.0
2015-Mar-01 00:33N 43°02' E 006°57'5 5.4
2015-Feb-28 23:33N 43°03' E 006°50'5 4.8
2015-Feb-28 22:33N 43°04' E 006°44'5 4.6
2015-Feb-28 21:33N 43°05' E 006°38'5 5.0
2015-Feb-28 20:33N 43°07' E 006°31'2 0.7
2015-Feb-28 18:13N 43°06' E 006°29'6 8.8
2015-Feb-28 17:33N 43°03' E 006°36'9 8.6
2015-Feb-28 16:33N 42°59' E 006°47'9 8.8
2015-Feb-28 15:33N 42°54' E 006°57'4 4.4
2015-Feb-28 14:32N 42°50' E 006°57'5 5.4
2015-Feb-28 13:33N 42°54' E 007°00'6 6.4
2015-Feb-28 12:33N 42°59' E 007°07'8 7.7
2015-Feb-28 11:32N 43°04' E 007°15'25 5.8
2015-Feb-28 07:13N 43°26' E 007°30'12 2.6
2015-Feb-28 02:30N 43°18' E 007°18'8 8.4
2015-Feb-28 01:33N 43°16' E 007°07'8 8.0
2015-Feb-28 00:33N 43°13' E 006°57'8 8.4
2015-Feb-27 23:33N 43°10' E 006°46'9 9.2
2015-Feb-27 22:33N 43°07' E 006°34'23 9.1
2015-Feb-27 20:03N 43°02' E 006°04'5 9.8
2015-Feb-27 19:33N 43°05' E 005°58'  

Dump ship's entire track history